Time;durP1;ratioP1;P1;durP2;ratioP2;P2;SDS_P1;SDS_P2;PMS_P1;PMS_P2;Temp;Humidity;BMP_temperature;BMP_pressure;BME280_temperature;BME280_humidity;BME280_pressure;Samples;Min_cycle;Max_cycle;Signal;HPM_P1;HPM_P2
2024/02/19 00:00:00;;;;;;;47.17;32.95;;;;;;;4.38;100.00;93946.16;5071305;28;20051;-71
2024/02/19 00:02:27;;;;;;;47.05;32.90;;;;;;;4.34;100.00;93949.16;5067792;28;20048;-70
2024/02/19 00:04:53;;;;;;;48.95;32.63;;;;;;;4.35;100.00;93940.59;5068206;28;20055;-71
2024/02/19 00:07:20;;;;;;;49.50;32.95;;;;;;;4.31;100.00;93944.38;5067977;28;20428;-70
2024/02/19 00:09:47;;;;;;;46.92;31.02;;;;;;;4.25;100.00;93946.56;5081051;28;20043;-70
2024/02/19 00:12:14;;;;;;;51.38;32.42;;;;;;;4.24;100.00;93951.81;5070941;28;20111;-70
2024/02/19 00:14:43;;;;;;;41.40;30.15;;;;;;;4.18;100.00;93939.72;5070176;28;20072;-71
2024/02/19 00:17:10;;;;;;;39.30;28.67;;;;;;;4.08;100.00;93943.16;5074855;28;20113;-70
2024/02/19 00:19:38;;;;;;;39.65;28.75;;;;;;;3.98;100.00;93939.94;5071305;28;20055;-70
2024/02/19 00:22:06;;;;;;;40.10;27.02;;;;;;;3.83;100.00;93926.97;5071325;28;20049;-70
2024/02/19 00:24:33;;;;;;;39.88;27.95;;;;;;;3.85;100.00;93943.66;5067533;28;20579;-70
2024/02/19 00:27:00;;;;;;;39.78;27.20;;;;;;;3.71;100.00;93936.59;5083395;28;20048;-70
2024/02/19 00:29:27;;;;;;;36.75;26.33;;;;;;;3.48;100.00;93916.75;5072663;28;20044;-70
2024/02/19 00:31:56;;;;;;;42.78;29.02;;;;;;;3.61;100.00;93932.41;5067399;28;20071;-70
2024/02/19 00:34:22;;;;;;;39.47;28.25;;;;;;;3.60;100.00;93932.53;5072223;28;20059;-70
2024/02/19 00:36:50;;;;;;;43.28;28.88;;;;;;;3.58;100.00;93927.63;5068621;28;20044;-70
2024/02/19 00:39:17;;;;;;;41.00;30.83;;;;;;;3.56;100.00;93928.72;5067382;28;20568;-70
2024/02/19 00:41:44;;;;;;;41.47;29.02;;;;;;;3.59;100.00;93923.34;5074995;28;20136;-70
2024/02/19 00:44:12;;;;;;;45.55;32.33;;;;;;;3.57;100.00;93927.78;5067720;28;20133;-70
2024/02/19 00:46:39;;;;;;;38.28;29.13;;;;;;;3.52;100.00;93929.97;5065907;28;20048;-70
2024/02/19 00:49:07;;;;;;;37.60;26.40;;;;;;;3.46;100.00;93913.56;5070069;28;20053;-70
2024/02/19 00:51:35;;;;;;;39.00;27.38;;;;;;;3.42;100.00;93912.28;5072070;28;20053;-70
2024/02/19 00:54:02;;;;;;;41.35;29.73;;;;;;;3.37;100.00;93910.16;5072975;28;20520;-70
2024/02/19 00:56:29;;;;;;;38.08;27.05;;;;;;;3.39;100.00;93912.56;5072764;28;20045;-70
2024/02/19 00:58:56;;;;;;;37.75;25.63;;;;;;;3.34;100.00;93911.25;5072174;28;20445;-71
2024/02/19 01:01:23;;;;;;;33.78;24.13;;;;;;;3.28;100.00;93906.00;5085664;28;20043;-71
2024/02/19 01:03:50;;;;;;;33.58;24.48;;;;;;;3.15;100.00;93904.59;5073753;28;20048;-71
2024/02/19 01:06:18;;;;;;;34.33;23.90;;;;;;;3.09;100.00;93906.94;5073783;28;20054;-71
2024/02/19 01:08:45;;;;;;;31.83;23.10;;;;;;;3.04;100.00;93899.75;5071088;28;20045;-72
2024/02/19 01:11:12;;;;;;;29.50;23.08;;;;;;;3.01;100.00;93902.59;5072981;28;20048;-72
2024/02/19 01:13:41;;;;;;;32.35;24.27;;;;;;;3.01;100.00;93894.97;5073322;28;20068;-71
2024/02/19 01:16:08;;;;;;;34.63;23.95;;;;;;;2.96;100.00;93889.53;5075233;28;20455;-71
2024/02/19 01:18:35;;;;;;;31.35;23.75;;;;;;;2.79;100.00;93882.56;5069842;28;20052;-71
2024/02/19 01:21:02;;;;;;;33.15;24.08;;;;;;;2.89;100.00;93889.31;5078016;28;20052;-71
2024/02/19 01:23:32;;;;;;;33.15;23.52;;;;;;;2.96;100.00;93885.25;5072978;28;20515;-71
2024/02/19 01:25:59;;;;;;;32.58;23.38;;;;;;;3.01;100.00;93880.53;5079093;28;20079;-71
2024/02/19 01:28:27;;;;;;;32.20;22.42;;;;;;;3.00;100.00;93878.16;5071939;28;20044;-71
2024/02/19 01:30:54;;;;;;;31.92;23.73;;;;;;;2.94;100.00;93882.06;5072590;28;20040;-71
2024/02/19 01:33:22;;;;;;;35.67;24.33;;;;;;;2.90;100.00;93873.16;5071089;28;20040;-71
2024/02/19 01:35:49;;;;;;;30.17;22.48;;;;;;;2.93;100.00;93873.66;5073331;28;20408;-71
2024/02/19 01:38:16;;;;;;;29.80;21.98;;;;;;;2.92;100.00;93874.59;5071027;28;20045;-71
2024/02/19 01:40:44;;;;;;;29.08;21.65;;;;;;;2.90;100.00;93878.22;5070454;28;20044;-71
2024/02/19 01:43:11;;;;;;;31.08;22.17;;;;;;;2.86;100.00;93872.63;5074182;28;20409;-71
2024/02/19 01:45:38;;;;;;;37.80;26.50;;;;;;;2.79;100.00;93869.88;5076081;28;20084;-71
2024/02/19 01:48:07;;;;;;;37.10;25.17;;;;;;;2.79;100.00;93874.94;5070377;28;20071;-71
2024/02/19 01:50:36;;;;;;;38.38;27.13;;;;;;;2.80;100.00;93873.22;5084788;28;20052;-71
2024/02/19 01:53:07;;;;;;;39.53;26.02;;;;;;;2.77;100.00;93865.88;5076942;28;20040;-71
2024/02/19 01:55:35;;;;;;;41.20;28.63;;;;;;;2.56;100.00;93841.63;5075585;28;20044;-71
2024/02/19 01:58:06;;;;;;;39.40;27.67;;;;;;;2.72;100.00;93863.03;5075257;28;20500;-71
2024/02/19 02:00:34;;;;;;;45.63;29.02;;;;;;;2.75;100.00;93865.25;5069069;28;21920;-71
2024/02/19 02:03:02;;;;;;;40.28;28.73;;;;;;;2.75;100.00;93858.44;5069206;28;20176;-71
2024/02/19 02:05:29;;;;;;;50.42;31.13;;;;;;;2.77;100.00;93863.34;5072456;28;20045;-71
2024/02/19 02:07:56;;;;;;;46.53;31.67;;;;;;;2.76;100.00;93860.03;5070713;28;20048;-71
2024/02/19 02:10:23;;;;;;;56.38;33.88;;;;;;;2.76;100.00;93860.03;5072555;28;20051;-71
2024/02/19 02:12:50;;;;;;;59.60;34.78;;;;;;;2.54;100.00;93818.13;5073066;28;20048;-71
2024/02/19 02:15:18;;;;;;;63.10;35.53;;;;;;;2.76;100.00;93846.53;5071570;28;20055;-71
2024/02/19 02:17:45;;;;;;;58.92;34.65;;;;;;;2.74;100.00;93854.28;5072905;28;20055;-71
2024/02/19 02:20:13;;;;;;;56.63;33.88;;;;;;;2.61;100.00;93836.91;5068900;28;20500;-71
2024/02/19 02:22:42;;;;;;;50.55;31.80;;;;;;;2.66;100.00;93849.97;5077131;28;20048;-70
2024/02/19 02:25:09;;;;;;;52.58;32.25;;;;;;;2.66;100.00;93849.97;5070762;28;20053;-70
2024/02/19 02:27:38;;;;;;;52.38;32.28;;;;;;;2.52;100.00;93830.97;5071925;28;20044;-70
2024/02/19 02:30:05;;;;;;;53.00;32.38;;;;;;;2.69;100.00;93853.97;5075451;28;20507;-70
2024/02/19 02:32:33;;;;;;;48.72;31.70;;;;;;;2.60;100.00;93842.91;5070561;28;20046;-71
2024/02/19 02:35:01;;;;;;;48.72;30.60;;;;;;;2.62;100.00;93847.84;5068148;28;20040;-71
2024/02/19 02:37:28;;;;;;;49.35;29.50;;;;;;;2.67;100.00;93851.56;5075110;28;20040;-71
2024/02/19 02:39:55;;;;;;;47.47;30.00;;;;;;;2.65;100.00;93857.72;5077027;28;20052;-70
2024/02/19 02:42:22;;;;;;;51.40;31.27;;;;;;;2.62;100.00;93856.25;5067203;28;20377;-70
2024/02/19 02:44:50;;;;;;;46.38;29.17;;;;;;;2.59;100.00;93859.06;5070707;28;20052;-70
2024/02/19 02:47:17;;;;;;;45.88;30.40;;;;;;;2.61;100.00;93861.47;5074626;28;20056;-70
2024/02/19 02:49:44;;;;;;;48.88;30.42;;;;;;;2.57;100.00;93858.44;5073460;28;20041;-70
2024/02/19 02:52:11;;;;;;;44.25;29.30;;;;;;;2.56;100.00;93861.91;5068474;28;20051;-70
2024/02/19 02:54:40;;;;;;;43.88;30.88;;;;;;;2.47;100.00;93839.94;5078070;28;20052;-70
2024/02/19 02:57:07;;;;;;;46.15;30.92;;;;;;;2.56;100.00;93856.03;5069175;28;20040;-70
2024/02/19 02:59:34;;;;;;;49.58;31.27;;;;;;;2.49;100.00;93846.47;5067843;28;20048;-70
2024/02/19 03:02:03;;;;;;;54.00;35.00;;;;;;;2.57;100.00;93855.09;5067401;28;20489;-70
2024/02/19 03:04:31;;;;;;;50.67;34.55;;;;;;;2.57;100.00;93857.63;5067596;28;20052;-70
2024/02/19 03:06:59;;;;;;;49.72;33.58;;;;;;;2.57;100.00;93855.91;5070241;28;20048;-70
2024/02/19 03:09:26;;;;;;;54.83;33.97;;;;;;;2.54;100.00;93848.56;5071823;28;20475;-70
2024/02/19 03:11:53;;;;;;;52.80;34.70;;;;;;;2.53;100.00;93852.03;5067984;28;20055;-70
2024/02/19 03:14:20;;;;;;;47.33;30.48;;;;;;;2.52;100.00;93853.00;5074065;28;20153;-70
2024/02/19 03:16:47;;;;;;;38.70;26.70;;;;;;;2.49;100.00;93851.53;5078235;28;20056;-70
2024/02/19 03:19:15;;;;;;;38.42;27.40;;;;;;;2.50;100.00;93852.34;5073632;28;20044;-70
2024/02/19 03:21:47;;;;;;;36.50;26.88;;;;;;;1.79;100.00;93761.66;5068892;28;20044;-70
2024/02/19 03:24:14;;;;;;;38.08;27.73;;;;;;;2.39;100.00;93841.47;5073287;28;20366;-70
2024/02/19 03:26:42;;;;;;;37.50;27.20;;;;;;;2.44;100.00;93858.78;5077882;28;20049;-71
2024/02/19 03:29:13;;;;;;;37.88;27.27;;;;;;;2.32;100.00;93849.78;5078457;28;20537;-71
2024/02/19 03:31:40;;;;;;;32.17;24.42;;;;;;;2.38;100.00;93857.63;5070578;28;20167;-70
2024/02/19 03:34:07;;;;;;;33.30;24.95;;;;;;;2.33;100.00;93854.72;5068882;28;20066;-70
2024/02/19 03:36:35;;;;;;;35.35;25.00;;;;;;;2.25;100.00;93852.09;5070713;28;20053;-70
2024/02/19 03:39:03;;;;;;;35.03;23.63;;;;;;;2.24;100.00;93850.50;5070248;28;20067;-70
2024/02/19 03:41:30;;;;;;;35.17;24.15;;;;;;;2.25;100.00;93850.38;5067899;28;20055;-70
2024/02/19 03:43:58;;;;;;;35.72;24.60;;;;;;;2.26;100.00;93857.03;5070794;28;20044;-70
2024/02/19 03:46:25;;;;;;;39.15;24.92;;;;;;;2.24;100.00;93850.50;5070089;28;20041;-70
2024/02/19 03:48:53;;;;;;;41.65;25.58;;;;;;;2.26;100.00;93856.22;5071774;28;20135;-70
2024/02/19 03:51:20;;;;;;;41.38;28.05;;;;;;;2.25;100.00;93852.09;5067618;28;20059;-70
2024/02/19 03:53:48;;;;;;;40.83;27.27;;;;;;;2.23;100.00;93847.16;5073186;28;20040;-70
2024/02/19 03:56:15;;;;;;;40.97;27.05;;;;;;;2.19;100.00;93838.25;5071147;28;20087;-70
2024/02/19 03:58:42;;;;;;;40.55;26.35;;;;;;;2.20;100.00;93842.38;5070410;28;20416;-70
2024/02/19 04:01:09;;;;;;;49.08;29.05;;;;;;;2.22;100.00;93850.63;5078524;28;20052;-71
2024/02/19 04:03:36;;;;;;;46.20;29.75;;;;;;;2.23;100.00;93849.69;5070791;28;20048;-71
2024/02/19 04:06:03;;;;;;;42.40;27.60;;;;;;;2.21;100.00;93851.56;5077410;28;20049;-70
2024/02/19 04:08:32;;;;;;;43.63;29.00;;;;;;;2.14;100.00;93848.81;5069157;28;20062;-71
2024/02/19 04:11:00;;;;;;;43.92;29.83;;;;;;;2.03;100.00;93849.00;5070266;28;20047;-71
2024/02/19 04:13:28;;;;;;;39.08;27.23;;;;;;;2.07;100.00;93857.91;5072077;28;20446;-70
2024/02/19 04:15:55;;;;;;;42.47;28.38;;;;;;;2.05;100.00;93844.59;5079699;28;20168;-70
2024/02/19 04:18:22;;;;;;;46.63;29.73;;;;;;;2.01;100.00;93845.81;5069272;28;20048;-70
2024/02/19 04:20:49;;;;;;;79.53;45.70;;;;;;;1.93;100.00;93854.13;5072534;28;20129;-70
2024/02/19 04:23:16;;;;;;;51.50;32.88;;;;;;;2.05;100.00;93857.28;5075811;28;20052;-71
2024/02/19 04:25:43;;;;;;;53.00;34.70;;;;;;;2.03;100.00;93853.28;5076046;28;20354;-70
2024/02/19 04:28:11;;;;;;;47.58;33.00;;;;;;;2.06;100.00;93852.97;5071330;28;20544;-70
2024/02/19 04:30:38;;;;;;;52.83;35.30;;;;;;;2.12;100.00;93850.69;5072880;28;20129;-70
2024/02/19 04:33:05;;;;;;;44.47;30.80;;;;;;;2.20;100.00;93849.19;5070771;28;20054;-70
2024/02/19 04:35:32;;;;;;;51.08;34.55;;;;;;;2.23;100.00;93848.91;5072788;28;20047;-70
2024/02/19 04:37:59;;;;;;;46.97;31.45;;;;;;;2.23;100.00;93847.16;5076724;28;20044;-70
2024/02/19 04:40:26;;;;;;;43.97;28.42;;;;;;;2.24;100.00;93850.50;5073326;28;20040;-70
2024/02/19 04:42:53;;;;;;;44.78;30.27;;;;;;;2.23;100.00;93843.84;5072558;28;20394;-70
2024/02/19 04:45:21;;;;;;;45.67;29.00;;;;;;;2.30;100.00;93846.59;5069463;28;20063;-70
2024/02/19 04:47:49;;;;;;;44.60;28.20;;;;;;;2.31;100.00;93840.59;5078367;28;20408;-70
2024/02/19 04:50:16;;;;;;;45.88;30.08;;;;;;;2.23;100.00;93828.63;5078701;28;20070;-70
2024/02/19 04:52:43;;;;;;;44.65;29.33;;;;;;;2.28;100.00;93839.13;5073198;28;20052;-70
2024/02/19 04:55:10;;;;;;;42.25;27.80;;;;;;;2.24;100.00;93833.56;5076398;28;20071;-71
2024/02/19 04:57:37;;;;;;;43.13;28.23;;;;;;;2.25;100.00;93837.69;5077145;28;20052;-71
2024/02/19 05:00:05;;;;;;;45.90;27.95;;;;;;;2.31;100.00;93828.69;5076601;28;20048;-70
2024/02/19 05:02:33;;;;;;;52.30;34.33;;;;;;;2.35;100.00;93834.28;5069762;28;22340;-70
2024/02/19 05:05:00;;;;;;;54.97;35.67;;;;;;;2.38;100.00;93832.28;5072987;28;20052;-70
2024/02/19 05:07:27;;;;;;;48.47;32.75;;;;;;;2.46;100.00;93835.81;5070764;28;20057;-70
2024/02/19 05:09:54;;;;;;;45.30;30.83;;;;;;;2.45;100.00;93829.16;5075579;28;20041;-70
2024/02/19 05:12:21;;;;;;;44.78;30.27;;;;;;;2.47;100.00;93835.69;5071256;28;20049;-70
2024/02/19 05:14:48;;;;;;;53.28;34.38;;;;;;;2.50;100.00;93837.13;5070225;28;20078;-70
2024/02/19 05:17:15;;;;;;;53.08;35.20;;;;;;;2.48;100.00;93829.66;5075728;28;20393;-70
2024/02/19 05:19:43;;;;;;;52.15;36.08;;;;;;;2.59;100.00;93838.00;5071427;28;20048;-70
2024/02/19 05:22:10;;;;;;;54.47;37.35;;;;;;;2.35;100.00;93824.13;5071252;28;20058;-70
2024/02/19 05:24:37;;;;;;;62.30;43.08;;;;;;;2.37;100.00;93834.94;5073611;28;20044;-70
2024/02/19 05:27:05;;;;;;;59.03;40.97;;;;;;;2.30;100.00;93816.97;5072573;28;20152;-70
2024/02/19 05:29:31;;;;;;;69.57;48.83;;;;;;;2.47;100.00;93834.88;5072181;28;20045;-71
2024/02/19 05:31:59;;;;;;;63.17;42.28;;;;;;;2.52;100.00;93832.72;5070873;28;20135;-70
2024/02/19 05:34:26;;;;;;;59.17;41.65;;;;;;;2.48;100.00;93821.25;5076534;28;20558;-71
2024/02/19 05:36:54;;;;;;;69.47;44.47;;;;;;;2.65;100.00;93829.81;5074020;28;20050;-71
2024/02/19 05:39:21;;;;;;;72.80;48.00;;;;;;;2.59;100.00;93823.56;5083627;28;20052;-71
2024/02/19 05:41:48;;;;;;;80.43;49.10;;;;;;;2.65;100.00;93817.91;5071275;28;20055;-71
2024/02/19 05:44:15;;;;;;;65.68;44.78;;;;;;;2.79;100.00;93833.56;5069717;28;20449;-71
2024/02/19 05:46:42;;;;;;;71.45;46.63;;;;;;;2.82;100.00;93833.28;5083431;28;20040;-71
2024/02/19 05:49:10;;;;;;;83.25;50.58;;;;;;;2.92;100.00;93830.66;5070664;28;20599;-70
2024/02/19 05:51:36;;;;;;;76.47;48.50;;;;;;;2.92;100.00;93831.44;5077732;28;20052;-70
2024/02/19 05:54:07;;;;;;;66.60;43.00;;;;;;;2.99;100.00;93836.75;5073253;28;20048;-70
2024/02/19 05:56:34;;;;;;;73.15;43.90;;;;;;;3.03;100.00;93832.97;5069717;28;20072;-71
2024/02/19 05:59:01;;;;;;;60.58;38.83;;;;;;;3.09;100.00;93843.50;5070946;28;20139;-71
2024/02/19 06:01:28;;;;;;;65.88;43.75;;;;;;;3.05;100.00;93828.53;5074761;28;20529;-71
2024/02/19 06:03:55;;;;;;;60.88;39.28;;;;;;;3.18;100.00;93845.13;5071328;28;20955;-71
2024/02/19 06:06:22;;;;;;;62.88;39.90;;;;;;;3.20;100.00;93841.50;5068965;28;20058;-71
2024/02/19 06:08:49;;;;;;;59.53;38.83;;;;;;;3.19;100.00;93834.00;5072707;28;20045;-71
2024/02/19 06:11:17;;;;;;;60.58;37.25;;;;;;;3.27;100.00;93833.28;5074240;28;20052;-70
2024/02/19 06:13:44;;;;;;;61.60;39.00;;;;;;;3.29;100.00;93833.94;5070844;28;20401;-70
2024/02/19 06:16:11;;;;;;;67.43;39.25;;;;;;;3.30;100.00;93838.06;5072141;28;20110;-70
2024/02/19 06:18:38;;;;;;;68.20;44.83;;;;;;;3.34;100.00;93834.28;5075056;28;20055;-71
2024/02/19 06:21:05;;;;;;;60.28;40.05;;;;;;;3.39;100.00;93837.19;5069641;28;20051;-70
2024/02/19 06:23:32;;;;;;;62.60;40.97;;;;;;;3.42;100.00;93833.53;5073302;28;20059;-70
2024/02/19 06:26:00;;;;;;;60.85;39.47;;;;;;;3.45;100.00;93834.03;5070887;28;20051;-70
2024/02/19 06:28:29;;;;;;;62.95;38.28;;;;;;;3.49;100.00;93826.91;5077062;28;20052;-70
2024/02/19 06:30:56;;;;;;;55.78;37.67;;;;;;;3.43;100.00;93810.50;5071070;28;20048;-70
2024/02/19 06:33:23;;;;;;;67.00;40.15;;;;;;;3.55;100.00;93828.03;5070504;28;20538;-70
2024/02/19 06:35:50;;;;;;;66.88;42.85;;;;;;;3.67;100.00;93829.41;5072940;28;20044;-70
2024/02/19 06:38:16;;;;;;;69.40;42.47;;;;;;;3.70;100.00;93838.47;5078894;28;20058;-70
2024/02/19 06:40:43;;;;;;;63.42;43.92;;;;;;;3.77;100.00;93839.44;5068875;28;20051;-70
2024/02/19 06:43:10;;;;;;;64.32;44.53;;;;;;;3.80;100.00;93828.16;5070144;28;20048;-70
2024/02/19 06:45:39;;;;;;;71.70;49.35;;;;;;;3.89;100.00;93829.78;5071404;28;20059;-71
2024/02/19 06:48:06;;;;;;;62.15;44.25;;;;;;;3.80;100.00;93830.72;5079366;28;20058;-70
2024/02/19 06:50:33;;;;;;;47.80;33.75;;;;;;;3.80;100.00;93828.16;5070658;28;20056;-70
2024/02/19 06:53:00;;;;;;;48.13;32.55;;;;;;;3.74;100.00;93840.53;5068757;28;20503;-71
2024/02/19 06:55:27;;;;;;;51.03;33.50;;;;;;;3.61;100.00;93833.31;5070444;28;20051;-71
2024/02/19 06:57:54;;;;;;;52.55;33.50;;;;;;;3.43;100.00;93840.22;5077824;28;20135;-70
2024/02/19 07:00:21;;;;;;;48.25;33.72;;;;;;;3.60;100.00;93838.53;5074770;28;20063;-70
2024/02/19 07:02:50;;;;;;;54.10;35.92;;;;;;;3.67;100.00;93837.00;5070218;28;20048;-71
2024/02/19 07:05:18;;;;;;;49.33;32.72;;;;;;;3.64;100.00;93829.69;5073386;28;20508;-70
2024/02/19 07:07:45;;;;;;;50.35;34.13;;;;;;;3.66;100.00;93837.94;5073563;28;20524;-70
2024/02/19 07:10:11;;;;;;;53.35;37.88;;;;;;;3.70;100.00;93841.78;5079858;28;20044;-70
2024/02/19 07:12:39;;;;;;;53.58;38.30;;;;;;;3.80;100.00;93835.78;5071072;28;20059;-70
2024/02/19 07:15:06;;;;;;;55.30;37.97;;;;;;;3.85;100.00;93829.28;5068576;28;20098;-70
2024/02/19 07:17:34;;;;;;;53.15;35.72;;;;;;;3.87;100.00;93819.78;5077179;28;20047;-71
2024/02/19 07:20:03;;;;;;;49.80;35.22;;;;;;;4.05;100.00;93834.16;5068107;28;20412;-71
2024/02/19 07:22:29;;;;;;;52.78;35.95;;;;;;;4.06;100.00;93824.75;5072329;28;20519;-71
2024/02/19 07:24:56;;;;;;;50.45;33.92;;;;;;;4.17;100.00;93828.78;5069691;28;20059;-71
2024/02/19 07:27:25;;;;;;;46.60;31.42;;;;;;;4.22;100.00;93826.56;5072681;28;20056;-71
2024/02/19 07:29:53;;;;;;;48.88;31.00;;;;;;;4.31;100.00;93829.94;5075425;28;20044;-70
2024/02/19 07:32:21;;;;;;;43.58;28.95;;;;;;;4.41;100.00;93820.41;5076631;28;20048;-70
2024/02/19 07:34:48;;;;;;;47.13;29.60;;;;;;;4.44;100.00;93825.19;5069746;28;20048;-70
2024/02/19 07:37:16;;;;;;;40.90;26.08;;;;;;;4.51;100.00;93827.91;5080742;28;20054;-70
2024/02/19 07:39:43;;;;;;;43.97;26.42;;;;;;;4.60;100.00;93821.06;5070785;28;20404;-70
2024/02/19 07:42:10;;;;;;;44.30;28.58;;;;;;;4.67;100.00;93820.28;5068067;28;20049;-70
2024/02/19 07:44:37;;;;;;;45.40;29.17;;;;;;;4.72;100.00;93822.34;5073320;28;20043;-70
2024/02/19 07:47:04;;;;;;;50.53;33.00;;;;;;;4.70;100.00;93796.28;5069325;28;20049;-70
2024/02/19 07:49:31;;;;;;;51.60;32.58;;;;;;;4.86;100.00;93820.16;5075741;28;20051;-70
2024/02/19 07:51:58;;;;;;;57.00;37.38;;;;;;;4.93;100.00;93813.44;5072414;28;20074;-70
2024/02/19 07:54:27;;;;;;;60.55;37.83;;;;;;;5.05;100.00;93812.16;5073574;28;20047;-70
2024/02/19 07:56:54;;;;;;;57.88;39.38;;;;;;;5.14;100.00;93815.50;5076170;28;20494;-70
2024/02/19 07:59:20;;;;;;;76.97;46.33;;;;;;;5.24;100.00;93812.81;5074425;28;20492;-70
2024/02/19 08:01:47;;;;;;;70.18;42.47;;;;;;;5.31;100.00;93813.75;5075751;28;20048;-70
2024/02/19 08:04:14;;;;;;;65.03;43.40;;;;;;;5.42;100.00;93809.28;5075021;28;20044;-70
2024/02/19 08:06:41;;;;;;;69.80;42.22;;;;;;;5.53;100.00;93808.13;5074253;28;20059;-71
2024/02/19 08:09:08;;;;;;;68.55;43.55;;;;;;;5.67;100.00;93811.75;5075664;28;20052;-71
2024/02/19 08:11:37;;;;;;;75.10;47.20;;;;;;;5.78;100.00;93813.94;5075688;28;20045;-71
2024/02/19 08:14:03;;;;;;;73.10;43.72;;;;;;;5.87;100.00;93792.56;5075751;28;20049;-71
2024/02/19 08:16:30;;;;;;;69.32;40.80;;;;;;;6.05;100.00;93801.75;5075360;28;20378;-71
2024/02/19 08:18:58;;;;;;;57.60;34.97;;;;;;;6.22;100.00;93799.13;5072875;28;20058;-71
2024/02/19 08:21:25;;;;;;;63.72;39.03;;;;;;;6.31;100.00;93804.97;5072782;28;20052;-71
2024/02/19 08:23:53;;;;;;;61.75;38.45;;;;;;;6.34;100.00;93805.41;5070505;28;20059;-71
2024/02/19 08:26:20;;;;;;;62.42;37.72;;;;;;;6.44;100.00;93789.09;5072337;28;20052;-71
2024/02/19 08:28:49;;;;;;;65.90;38.88;;;;;;;6.74;100.00;93794.31;5071391;28;20595;-71
2024/02/19 08:31:16;;;;;;;71.82;41.15;;;;;;;7.08;100.00;93795.63;5079096;28;20054;-71
2024/02/19 08:33:43;;;;;;;60.72;36.03;;;;;;;7.37;100.00;93790.75;5079706;28;20527;-71
2024/02/19 08:36:09;;;;;;;61.58;40.58;;;;;;;7.38;98.38;93800.00;5073009;28;20121;-71
2024/02/19 08:38:36;;;;;;;62.20;39.58;;;;;;;7.55;96.46;93793.75;5069374;28;20032;-71
2024/02/19 08:41:04;;;;;;;59.00;36.30;;;;;;;7.69;95.85;93802.38;5071792;28;20052;-71
2024/02/19 08:43:32;;;;;;;56.63;39.53;;;;;;;7.62;94.79;93797.22;5072022;28;20412;-71
2024/02/19 08:46:00;;;;;;;65.90;41.75;;;;;;;7.73;95.62;93806.19;5069862;28;20490;-71
2024/02/19 08:48:27;;;;;;;56.78;39.95;;;;;;;7.75;97.48;93794.03;5077584;28;20511;-71
2024/02/19 08:50:54;;;;;;;56.97;37.70;;;;;;;7.82;97.81;93788.22;5073480;28;20135;-71
2024/02/19 08:53:21;;;;;;;46.58;31.55;;;;;;;7.75;97.69;93793.22;5075662;28;20047;-71
2024/02/19 08:55:48;;;;;;;65.47;38.42;;;;;;;7.94;95.32;93784.22;5071722;28;20429;-71
2024/02/19 08:58:15;;;;;;;227.40;128.77;;;;;;;7.79;96.34;93791.09;5075906;28;20047;-71
2024/02/19 09:00:42;;;;;;;62.10;40.85;;;;;;;7.89;94.50;93783.97;5073678;28;20076;-71
2024/02/19 09:03:10;;;;;;;127.20;88.80;;;;;;;7.74;93.66;93792.44;5076532;28;20416;-71
2024/02/19 09:05:38;;;;;;;51.33;35.25;;;;;;;7.86;93.72;93785.09;5069200;28;20048;-71
2024/02/19 09:08:05;;;;;;;40.13;27.60;;;;;;;8.12;94.49;93781.28;5075098;28;20389;-71
2024/02/19 09:10:33;;;;;;;36.65;24.73;;;;;;;7.77;93.20;93783.59;5071108;28;20041;-71
2024/02/19 09:13:01;;;;;;;38.95;25.05;;;;;;;7.73;94.45;93795.19;5073447;28;20177;-71
2024/02/19 09:15:27;;;;;;;33.90;23.60;;;;;;;7.94;94.18;93781.66;5072813;28;20041;-71
2024/02/19 09:17:55;;;;;;;38.90;26.00;;;;;;;7.92;93.49;93775.91;5073855;28;20767;-71
2024/02/19 09:20:24;;;;;;;38.08;25.35;;;;;;;7.76;94.31;93784.59;5073391;28;20048;-71
2024/02/19 09:22:50;;;;;;;36.65;23.33;;;;;;;8.28;95.38;93780.25;5074468;28;20044;-71
2024/02/19 09:25:17;;;;;;;40.05;25.75;;;;;;;8.61;90.22;93778.25;5070033;28;20049;-71
2024/02/19 09:27:44;;;;;;;37.50;24.17;;;;;;;8.85;88.03;93771.16;5079723;28;20067;-71
2024/02/19 09:30:12;;;;;;;32.95;21.90;;;;;;;9.12;87.54;93777.28;5072130;28;20048;-71
2024/02/19 09:32:39;;;;;;;33.58;19.85;;;;;;;8.78;86.30;93792.38;5077878;28;20045;-71
2024/02/19 09:35:06;;;;;;;36.15;21.05;;;;;;;8.76;84.03;93747.44;5075028;28;20052;-71
2024/02/19 09:37:34;;;;;;;43.83;22.33;;;;;;;9.33;83.23;93778.19;5074788;28;20052;-71
2024/02/19 09:40:04;;;;;;;53.47;23.13;;;;;;;9.01;84.62;93775.22;5074004;28;20053;-71
2024/02/19 09:42:32;;;;;;;50.67;24.50;;;;;;;9.06;84.29;93768.56;5072876;28;20094;-71
2024/02/19 09:45:00;;;;;;;40.83;21.58;;;;;;;9.52;84.17;93765.69;5073592;28;20135;-71
2024/02/19 09:47:28;;;;;;;43.15;21.80;;;;;;;9.79;81.77;93770.94;5073459;28;20052;-71
2024/02/19 09:49:56;;;;;;;44.65;23.55;;;;;;;9.96;81.47;93759.38;5072404;28;20420;-71
2024/02/19 09:52:24;;;;;;;43.88;20.80;;;;;;;9.86;78.12;93762.31;5075637;28;20492;-71
2024/02/19 09:54:53;;;;;;;63.60;25.42;;;;;;;9.95;80.19;93762.94;5070239;28;20443;-71
2024/02/19 09:57:20;;;;;;;57.70;26.35;;;;;;;10.01;83.18;93758.81;5072172;28;20052;-71
2024/02/19 09:59:49;;;;;;;50.80;24.15;;;;;;;9.66;81.86;93764.78;5077245;28;20131;-71
2024/02/19 10:02:18;;;;;;;51.47;24.73;;;;;;;9.46;82.58;93749.28;5075332;28;20484;-71
2024/02/19 10:04:46;;;;;;;49.63;22.58;;;;;;;9.36;82.59;93739.38;5070212;28;20067;-72
2024/02/19 10:07:17;;;;;;;53.38;22.75;;;;;;;9.56;81.34;93764.34;5078957;28;20048;-71
2024/02/19 10:09:44;;;;;;;46.85;24.50;;;;;;;9.12;83.40;93756.00;5070424;28;20044;-72
2024/02/19 10:12:12;;;;;;;45.58;23.80;;;;;;;9.40;84.25;93760.31;5079720;28;20055;-72
2024/02/19 10:14:39;;;;;;;40.92;20.27;;;;;;;9.59;82.40;93751.16;5072189;28;20037;-71
2024/02/19 10:17:06;;;;;;;45.58;24.27;;;;;;;9.84;83.09;93746.31;5071982;28;20057;-72
2024/02/19 10:19:33;;;;;;;41.15;22.40;;;;;;;9.60;83.36;93748.41;5071027;28;20412;-72
2024/02/19 10:22:00;;;;;;;45.67;23.63;;;;;;;10.02;83.37;93739.88;5069826;28;20135;-72
2024/02/19 10:24:27;;;;;;;46.80;24.33;;;;;;;9.92;82.14;93744.56;5074361;28;20048;-71
2024/02/19 10:26:54;;;;;;;39.90;22.63;;;;;;;9.55;83.11;93739.66;5069842;28;20658;-71
2024/02/19 10:29:22;;;;;;;36.53;23.45;;;;;;;9.45;83.77;93729.75;5073472;28;20045;-71
2024/02/19 10:31:49;;;;;;;42.15;24.48;;;;;;;9.83;83.80;93731.91;5071817;28;20044;-71
2024/02/19 10:34:16;;;;;;;44.90;26.45;;;;;;;10.19;83.62;93724.91;5075069;28;20854;-71
2024/02/19 10:36:45;;;;;;;40.70;25.38;;;;;;;10.08;83.14;93723.69;5071886;28;20049;-72
2024/02/19 10:39:12;;;;;;;45.13;28.00;;;;;;;10.29;82.38;93722.75;5081265;28;20382;-71
2024/02/19 10:41:39;;;;;;;40.58;25.85;;;;;;;10.55;81.45;93717.88;5072039;28;20047;-71
2024/02/19 10:44:06;;;;;;;45.83;28.27;;;;;;;10.73;82.10;93717.28;5071300;28;20075;-71
2024/02/19 10:46:35;;;;;;;39.00;23.63;;;;;;;10.52;79.13;93713.13;5068689;28;20040;-71
2024/02/19 10:49:03;;;;;;;39.58;25.30;;;;;;;10.35;80.69;93710.91;5068669;28;20412;-71
2024/02/19 10:51:30;;;;;;;39.05;24.48;;;;;;;10.64;80.78;93700.50;5077347;28;20055;-71
2024/02/19 10:54:02;;;;;;;34.08;22.00;;;;;;;10.31;79.91;93703.81;5071145;28;20056;-71
2024/02/19 10:56:36;;;;;;;36.22;21.67;;;;;;;10.45;80.12;93692.56;5072310;28;20048;-71
2024/02/19 10:59:03;;;;;;;35.35;20.83;;;;;;;10.13;79.76;93695.66;5071963;28;20056;-71
2024/02/19 11:01:43;;;;;;;34.88;19.85;;;;;;;10.05;80.17;93674.53;5068329;28;20051;-72
2024/02/19 11:04:19;;;;;;;32.40;20.55;;;;;;;10.13;79.06;93685.41;5070679;28;20048;-71
2024/02/19 11:06:46;;;;;;;;;;;;;;;10.59;79.41;93685.66;5068628;28;20468;-71
2024/02/19 11:09:13;;;;;;;38.42;21.48;;;;;;;10.55;76.56;93687.03;5073099;28;19931;-71
2024/02/19 11:11:47;;;;;;;36.95;20.60;;;;;;;10.39;76.38;93678.72;5072823;28;20048;-71
2024/02/19 11:14:15;;;;;;;33.40;18.67;;;;;;;10.53;76.64;93669.28;5073740;28;20090;-72
2024/02/19 11:16:44;;;;;;;37.92;18.48;;;;;;;10.62;76.51;93672.44;5071660;28;20048;-72
2024/02/19 11:19:11;;;;;;;35.55;20.42;;;;;;;10.93;78.29;93670.25;5070983;28;20053;-72